Time;durP1;ratioP1;P1;durP2;ratioP2;P2;SDS_P1;SDS_P2;PMS_P1;PMS_P2;Temp;Humidity;BMP_temperature;BMP_pressure;BME280_temperature;BME280_humidity;BME280_pressure;Samples;Min_cycle;Max_cycle;Signal;HPM_P1;HPM_P2
2023/06/24 00:02:01;;;;;;;9.30;7.33;;;;;;;;;;4997894;28;20825;-78
2023/06/24 00:04:29;;;;;;;9.10;8.20;;;;;;;;;;4997865;28;20456;-79
2023/06/24 00:06:59;;;;;;;12.40;8.03;;;;;;;;;;4998224;28;20447;-79
2023/06/24 00:09:27;;;;;;;10.50;6.10;;;;;;;;;;4997711;28;20860;-78
2023/06/24 00:11:54;;;;;;;10.53;7.20;;;;;;;;;;4998004;28;20822;-79
2023/06/24 00:14:23;;;;;;;10.20;8.47;;;;;;;;;;4998023;28;20461;-78
2023/06/24 00:16:51;;;;;;;7.20;6.30;;;;;;;;;;4997873;28;20852;-79
2023/06/24 00:19:21;;;;;;;8.80;6.73;;;;;;;;;;4997678;28;20459;-78
2023/06/24 00:21:50;;;;;;;10.77;8.80;;;;;;;;;;4997751;28;20881;-78
2023/06/24 00:24:19;;;;;;;11.63;9.03;;;;;;;;;;4997852;28;20460;-79
2023/06/24 00:26:46;;;;;;;9.37;8.43;;;;;;;;;;4997848;28;20456;-76
2023/06/24 00:29:14;;;;;;;12.30;8.43;;;;;;;;;;4997365;28;20586;-78
2023/06/24 00:31:42;;;;;;;10.83;9.17;;;;;;;;;;4998018;28;20937;-78
2023/06/24 00:34:09;;;;;;;9.43;8.37;;;;;;;;;;4998153;28;20454;-79
2023/06/24 00:36:38;;;;;;;9.13;8.03;;;;;;;;;;4997160;28;20452;-78
2023/06/24 00:39:06;;;;;;;14.10;8.27;;;;;;;;;;4997686;28;20792;-78
2023/06/24 00:41:33;;;;;;;9.80;7.60;;;;;;;;;;4998045;28;20847;-78
2023/06/24 00:44:00;;;;;;;7.93;6.73;;;;;;;;;;4998826;28;20467;-78
2023/06/24 00:46:28;;;;;;;9.77;8.03;;;;;;;;;;4998158;28;20456;-78
2023/06/24 00:48:56;;;;;;;11.00;8.10;;;;;;;;;;4997080;28;20491;-78
2023/06/24 00:51:26;;;;;;;10.33;8.00;;;;;;;;;;4997240;28;20506;-78
2023/06/24 00:53:54;;;;;;;9.40;7.33;;;;;;;;;;4997724;28;20467;-78
2023/06/24 00:56:23;;;;;;;8.47;7.30;;;;;;;;;;4997199;28;20538;-78
2023/06/24 00:58:51;;;;;;;8.47;7.47;;;;;;;;;;4996663;28;20467;-78
2023/06/24 01:01:19;;;;;;;12.33;7.57;;;;;;;;;;4996441;28;20476;-77
2023/06/24 01:03:46;;;;;;;10.10;8.43;;;;;;;;;;4996862;28;20487;-77
2023/06/24 01:06:15;;;;;;;10.60;8.63;;;;;;;;;;4996490;28;20468;-77
2023/06/24 01:08:42;;;;;;;10.10;7.60;;;;;;;;;;4996264;28;20531;-77
2023/06/24 01:11:11;;;;;;;10.43;9.03;;;;;;;;;;4996235;28;20555;-78
2023/06/24 01:13:38;;;;;;;11.20;9.30;;;;;;;;;;4996125;28;20460;-78
2023/06/24 01:16:09;;;;;;;10.93;9.47;;;;;;;;;;4996371;28;20448;-78
2023/06/24 01:18:36;;;;;;;9.23;8.33;;;;;;;;;;4995865;28;20447;-78
2023/06/24 01:21:06;;;;;;;11.50;9.30;;;;;;;;;;4996184;28;20484;-78
2023/06/24 01:23:56;;;;;;;11.63;8.43;;;;;;;;;;4996020;28;20510;-79
2023/06/24 01:29:46;;;;;;;11.93;9.40;;;;;;;;;;4995907;28;20515;-78
2023/06/24 01:32:19;;;;;;;22.80;9.53;;;;;;;;;;4996280;28;20459;-78
2023/06/24 01:34:50;;;;;;;9.67;8.53;;;;;;;;;;4996355;28;20563;-78
2023/06/24 01:37:19;;;;;;;10.20;8.90;;;;;;;;;;4995868;28;20451;-77
2023/06/24 01:39:48;;;;;;;13.43;10.33;;;;;;;;;;4996110;28;20878;-78
2023/06/24 01:42:17;;;;;;;15.53;10.47;;;;;;;;;;4995966;28;20464;-78
2023/06/24 01:44:45;;;;;;;10.40;8.70;;;;;;;;;;4995963;28;20545;-79
2023/06/24 01:47:15;;;;;;;11.03;9.40;;;;;;;;;;4994974;28;20979;-78
2023/06/24 01:49:44;;;;;;;10.53;9.10;;;;;;;;;;4995299;28;20518;-77
2023/06/24 01:52:11;;;;;;;11.27;9.53;;;;;;;;;;4995884;28;20615;-77
2023/06/24 01:54:40;;;;;;;13.37;9.53;;;;;;;;;;4996019;28;20451;-78
2023/06/24 01:57:07;;;;;;;13.03;9.20;;;;;;;;;;4996017;28;20973;-78
2023/06/24 01:59:35;;;;;;;11.40;9.33;;;;;;;;;;4995926;28;20471;-78
2023/06/24 02:02:03;;;;;;;12.43;8.80;;;;;;;;;;4995692;28;20466;-78
2023/06/24 02:04:31;;;;;;;13.73;10.03;;;;;;;;;;4995712;28;20455;-77
2023/06/24 02:06:59;;;;;;;14.33;9.90;;;;;;;;;;4995637;28;20471;-79
2023/06/24 02:09:28;;;;;;;12.67;9.47;;;;;;;;;;4995722;28;20498;-79
2023/06/24 02:11:56;;;;;;;11.77;9.17;;;;;;;;;;4995840;28;20818;-79
2023/06/24 02:14:24;;;;;;;10.83;8.60;;;;;;;;;;4995493;28;20835;-79
2023/06/24 02:16:56;;;;;;;11.37;8.53;;;;;;;;;;4995930;28;20460;-77
2023/06/24 02:19:23;;;;;;;12.63;8.90;;;;;;;;;;4995675;28;20460;-77
2023/06/24 02:21:51;;;;;;;9.60;8.20;;;;;;;;;;4995831;28;20456;-78
2023/06/24 02:24:20;;;;;;;12.77;8.10;;;;;;;;;;4996146;28;20448;-78
2023/06/24 02:26:48;;;;;;;10.87;8.70;;;;;;;;;;4996055;28;20820;-77
2023/06/24 02:29:15;;;;;;;10.47;8.53;;;;;;;;;;4995212;28;20498;-77
2023/06/24 02:31:42;;;;;;;13.03;8.03;;;;;;;;;;4995742;28;20467;-77
2023/06/24 02:34:09;;;;;;;11.00;7.00;;;;;;;;;;4995682;28;20455;-77
2023/06/24 02:36:36;;;;;;;10.33;8.70;;;;;;;;;;4995766;28;20451;-78
2023/06/24 02:39:04;;;;;;;10.60;8.43;;;;;;;;;;4995438;28;20455;-77
2023/06/24 02:41:32;;;;;;;11.27;8.70;;;;;;;;;;4995408;28;20484;-78
2023/06/24 02:43:59;;;;;;;11.63;8.60;;;;;;;;;;4995436;28;20458;-77
2023/06/24 02:46:29;;;;;;;10.40;7.37;;;;;;;;;;4995350;28;20470;-78
2023/06/24 02:48:57;;;;;;;9.70;8.33;;;;;;;;;;4994674;28;20542;-78
2023/06/24 02:51:24;;;;;;;9.37;8.00;;;;;;;;;;4995354;28;20491;-78
2023/06/24 02:53:51;;;;;;;11.40;7.97;;;;;;;;;;4995313;28;20474;-78
2023/06/24 02:56:20;;;;;;;9.73;7.70;;;;;;;;;;4995326;28;20940;-77
2023/06/24 02:58:49;;;;;;;10.73;7.70;;;;;;;;;;4995290;28;20952;-77
2023/06/24 03:01:17;;;;;;;9.20;7.87;;;;;;;;;;4995322;28;20487;-78
2023/06/24 03:03:49;;;;;;;16.30;8.70;;;;;;;;;;4995585;28;20456;-78
2023/06/24 03:06:17;;;;;;;8.50;7.13;;;;;;;;;;4995313;28;20452;-78
2023/06/24 03:08:44;;;;;;;11.00;9.00;;;;;;;;;;4995084;28;20975;-78
2023/06/24 03:11:13;;;;;;;12.17;8.83;;;;;;;;;;4995187;28;20476;-78
2023/06/24 03:13:41;;;;;;;10.57;8.20;;;;;;;;;;4994970;28;20852;-78
2023/06/24 03:16:11;;;;;;;10.93;8.30;;;;;;;;;;4994776;28;20462;-78
2023/06/24 03:18:39;;;;;;;8.57;7.30;;;;;;;;;;4994242;28;20455;-77
2023/06/24 03:21:07;;;;;;;9.60;8.03;;;;;;;;;;4994438;28;20475;-78
2023/06/24 03:23:34;;;;;;;10.40;8.20;;;;;;;;;;4993948;28;21143;-79
2023/06/24 03:26:02;;;;;;;10.53;8.07;;;;;;;;;;4994373;28;20464;-78
2023/06/24 03:28:29;;;;;;;10.13;7.17;;;;;;;;;;4994154;28;20476;-79
2023/06/24 03:30:57;;;;;;;9.63;8.70;;;;;;;;;;4994068;28;20873;-79
2023/06/24 03:33:26;;;;;;;7.90;7.10;;;;;;;;;;4993990;28;20455;-78
2023/06/24 03:35:54;;;;;;;10.40;7.83;;;;;;;;;;4994270;28;20948;-77
2023/06/24 03:38:21;;;;;;;7.53;6.83;;;;;;;;;;4993944;28;20957;-78
2023/06/24 03:40:48;;;;;;;13.47;9.60;;;;;;;;;;4994067;28;20502;-78
2023/06/24 03:43:15;;;;;;;9.40;8.40;;;;;;;;;;4994496;28;20971;-78
2023/06/24 03:45:42;;;;;;;10.87;9.00;;;;;;;;;;4994512;28;20822;-77
2023/06/24 03:48:09;;;;;;;9.60;8.60;;;;;;;;;;4993742;28;20463;-77
2023/06/24 03:50:38;;;;;;;13.07;8.80;;;;;;;;;;4993974;28;21008;-77
2023/06/24 03:53:05;;;;;;;10.50;7.07;;;;;;;;;;4994153;28;20464;-77
2023/06/24 03:55:32;;;;;;;10.07;7.73;;;;;;;;;;4994078;28;20491;-78
2023/06/24 03:58:00;;;;;;;8.50;6.63;;;;;;;;;;4994210;28;20448;-77
2023/06/24 04:00:27;;;;;;;14.10;9.10;;;;;;;;;;4994339;28;20474;-77
2023/06/24 04:02:54;;;;;;;8.10;7.30;;;;;;;;;;4993805;28;20811;-77
2023/06/24 04:05:21;;;;;;;11.90;8.50;;;;;;;;;;4993933;28;20466;-77
2023/06/24 04:07:50;;;;;;;10.00;7.73;;;;;;;;;;4993854;28;20440;-78
2023/06/24 04:10:18;;;;;;;9.33;7.50;;;;;;;;;;4995158;28;20499;-77
2023/06/24 04:12:45;;;;;;;10.80;9.10;;;;;;;;;;4997261;28;20871;-78
2023/06/24 04:15:13;;;;;;;9.33;6.63;;;;;;;;;;4997034;28;20458;-78
2023/06/24 04:17:40;;;;;;;9.57;7.20;;;;;;;;;;4996556;28;20479;-77
2023/06/24 04:20:08;;;;;;;8.33;7.43;;;;;;;;;;4996584;28;20472;-77
2023/06/24 04:22:35;;;;;;;9.43;6.50;;;;;;;;;;5012422;22;21029;-77
2023/06/24 04:25:05;;;;;;;15.63;7.07;;;;;;;;;;5015125;28;20451;-76
2023/06/24 04:27:33;;;;;;;9.23;7.03;;;;;;;;;;5015016;28;20471;-77
2023/06/24 04:30:00;;;;;;;13.97;9.30;;;;;;;;;;5015041;28;20625;-76
2023/06/24 04:32:27;;;;;;;11.10;7.60;;;;;;;;;;5014829;28;20455;-77
2023/06/24 04:34:54;;;;;;;9.30;7.40;;;;;;;;;;5014785;28;20462;-76
2023/06/24 04:37:21;;;;;;;9.80;6.67;;;;;;;;;;5014698;28;20477;-77
2023/06/24 04:39:49;;;;;;;14.60;8.90;;;;;;;;;;5014945;28;20490;-76
2023/06/24 04:42:18;;;;;;;8.03;7.20;;;;;;;;;;5014793;28;20866;-77
2023/06/24 04:44:45;;;;;;;8.73;6.70;;;;;;;;;;5014768;28;20455;-77
2023/06/24 04:47:13;;;;;;;11.00;8.70;;;;;;;;;;5014748;28;20931;-76
2023/06/24 04:49:40;;;;;;;8.57;7.10;;;;;;;;;;5014339;28;20986;-77
2023/06/24 04:52:08;;;;;;;12.33;10.53;;;;;;;;;;5014548;28;20469;-76
2023/06/24 04:54:35;;;;;;;8.13;6.40;;;;;;;;;;5014741;28;20454;-77
2023/06/24 04:57:02;;;;;;;9.03;8.10;;;;;;;;;;5014578;28;20466;-77
2023/06/24 04:59:30;;;;;;;14.53;7.30;;;;;;;;;;5014307;28;20982;-77
2023/06/24 05:01:58;;;;;;;9.33;6.70;;;;;;;;;;5014378;28;20443;-75
2023/06/24 05:04:25;;;;;;;7.93;6.20;;;;;;;;;;5014257;28;20462;-77
2023/06/24 05:06:52;;;;;;;8.33;6.77;;;;;;;;;;5015033;28;20970;-76
2023/06/24 05:09:19;;;;;;;8.73;7.17;;;;;;;;;;5014284;28;20482;-77
2023/06/24 05:11:46;;;;;;;8.03;6.47;;;;;;;;;;5014324;28;20457;-76
2023/06/24 05:14:13;;;;;;;7.60;6.80;;;;;;;;;;5014151;28;20462;-76
2023/06/24 05:16:41;;;;;;;8.47;5.67;;;;;;;;;;5013299;28;20957;-77
2023/06/24 05:19:09;;;;;;;9.87;7.13;;;;;;;;;;5014379;28;20461;-76
2023/06/24 05:21:36;;;;;;;9.47;7.40;;;;;;;;;;5013649;28;20836;-77
2023/06/24 05:24:03;;;;;;;9.93;7.83;;;;;;;;;;5014363;28;20895;-76
2023/06/24 05:26:30;;;;;;;12.07;7.93;;;;;;;;;;5013617;28;20455;-76
2023/06/24 05:28:57;;;;;;;10.10;7.10;;;;;;;;;;5013858;28;20465;-77
2023/06/24 05:31:24;;;;;;;10.13;7.50;;;;;;;;;;5013602;28;20506;-77
2023/06/24 05:33:53;;;;;;;11.00;7.50;;;;;;;;;;5013883;28;20545;-77
2023/06/24 05:36:20;;;;;;;7.23;6.23;;;;;;;;;;5013643;28;20832;-77
2023/06/24 05:38:48;;;;;;;8.83;6.43;;;;;;;;;;5013495;28;20458;-76
2023/06/24 05:41:15;;;;;;;6.47;5.80;;;;;;;;;;5013482;28;21024;-77
2023/06/24 05:43:44;;;;;;;10.70;8.03;;;;;;;;;;5013438;28;20458;-77
2023/06/24 05:46:11;;;;;;;8.00;7.10;;;;;;;;;;5013606;28;20485;-76
2023/06/24 05:48:39;;;;;;;11.70;7.20;;;;;;;;;;5012929;28;20541;-76
2023/06/24 05:51:08;;;;;;;9.40;6.67;;;;;;;;;;5013467;28;20495;-77
2023/06/24 05:53:35;;;;;;;10.50;6.93;;;;;;;;;;5013244;28;21007;-77
2023/06/24 05:56:03;;;;;;;7.50;6.73;;;;;;;;;;5013415;28;20459;-77
2023/06/24 05:58:30;;;;;;;9.97;7.37;;;;;;;;;;5013144;28;20462;-77
2023/06/24 06:00:58;;;;;;;12.80;9.90;;;;;;;;;;5013279;28;20489;-77
2023/06/24 06:03:25;;;;;;;18.90;13.50;;;;;;;;;;5013116;28;20561;-77
2023/06/24 06:05:52;;;;;;;10.50;8.70;;;;;;;;;;5013607;28;20819;-76
2023/06/24 06:08:21;;;;;;;9.73;8.73;;;;;;;;;;5013074;28;20459;-78
2023/06/24 06:10:48;;;;;;;7.73;6.67;;;;;;;;;;5013130;28;20498;-77
2023/06/24 06:13:15;;;;;;;13.13;6.90;;;;;;;;;;5013070;28;20462;-77
2023/06/24 06:15:42;;;;;;;8.80;7.83;;;;;;;;;;5012946;28;20459;-77
2023/06/24 06:18:09;;;;;;;9.47;6.90;;;;;;;;;;5012951;28;20949;-77
2023/06/24 06:20:37;;;;;;;8.23;6.73;;;;;;;;;;5012746;28;20486;-78
2023/06/24 06:23:04;;;;;;;7.70;6.80;;;;;;;;;;5012797;28;20466;-77
2023/06/24 06:25:32;;;;;;;8.90;6.80;;;;;;;;;;5012875;28;20554;-77
2023/06/24 06:27:59;;;;;;;8.33;7.00;;;;;;;;;;5012016;28;20471;-77
2023/06/24 06:30:26;;;;;;;6.53;5.93;;;;;;;;;;5012761;28;20506;-77
2023/06/24 06:32:53;;;;;;;11.27;6.07;;;;;;;;;;5012102;28;20447;-77
2023/06/24 06:35:21;;;;;;;7.07;6.27;;;;;;;;;;5012910;28;20463;-78
2023/06/24 06:37:52;;;;;;;8.07;5.80;;;;;;;;;;5012229;28;20465;-77
2023/06/24 06:40:19;;;;;;;7.27;6.53;;;;;;;;;;5012645;28;20489;-77
2023/06/24 06:42:48;;;;;;;18.43;7.10;;;;;;;;;;5012537;28;20461;-77
2023/06/24 06:45:15;;;;;;;7.60;6.20;;;;;;;;;;5012661;28;20967;-77
2023/06/24 06:47:42;;;;;;;14.30;6.57;;;;;;;;;;5012589;28;20994;-77
2023/06/24 06:50:10;;;;;;;9.50;8.23;;;;;;;;;;5012323;28;20498;-77
2023/06/24 06:52:38;;;;;;;12.27;8.40;;;;;;;;;;5012299;28;20451;-77
2023/06/24 06:55:05;;;;;;;11.07;7.80;;;;;;;;;;5012722;28;20545;-76
2023/06/24 06:57:32;;;;;;;7.67;6.30;;;;;;;;;;5012487;28;20455;-77
2023/06/24 07:00:01;;;;;;;6.27;5.50;;;;;;;;;;5011647;28;20467;-77
2023/06/24 07:02:28;;;;;;;8.07;6.73;;;;;;;;;;5012257;28;20450;-77
2023/06/24 07:04:55;;;;;;;7.57;6.20;;;;;;;;;;5012416;28;20458;-77
2023/06/24 07:07:22;;;;;;;8.87;5.80;;;;;;;;;;5012423;28;20484;-78
2023/06/24 07:09:50;;;;;;;7.67;5.83;;;;;;;;;;5012295;28;21013;-76
2023/06/24 07:12:17;;;;;;;9.70;5.73;;;;;;;;;;5012409;28;20498;-78
2023/06/24 07:14:44;;;;;;;8.10;6.70;;;;;;;;;;5012482;28;20542;-77
2023/06/24 07:17:12;;;;;;;7.27;6.37;;;;;;;;;;5012576;28;20482;-77
2023/06/24 07:19:39;;;;;;;8.67;6.00;;;;;;;;;;5012318;28;20471;-76
2023/06/24 07:22:06;;;;;;;11.10;6.20;;;;;;;;;;5011982;28;20462;-76
2023/06/24 07:24:34;;;;;;;11.40;5.93;;;;;;;;;;5012072;28;20459;-77
2023/06/24 07:27:01;;;;;;;13.10;6.90;;;;;;;;;;5011551;28;20523;-77
2023/06/24 07:29:28;;;;;;;10.40;6.40;;;;;;;;;;5011803;28;20465;-77
2023/06/24 07:31:55;;;;;;;8.30;6.17;;;;;;;;;;5012170;28;20498;-77
2023/06/24 07:34:23;;;;;;;8.77;5.70;;;;;;;;;;5012003;28;20850;-78
2023/06/24 07:36:51;;;;;;;10.67;7.90;;;;;;;;;;5011964;28;20450;-77
2023/06/24 07:39:18;;;;;;;6.63;5.80;;;;;;;;;;5011777;28;20951;-76
2023/06/24 07:41:45;;;;;;;6.80;6.10;;;;;;;;;;5011855;28;20463;-78
2023/06/24 07:44:12;;;;;;;9.70;5.90;;;;;;;;;;5012290;28;20478;-78
2023/06/24 07:46:39;;;;;;;6.90;5.93;;;;;;;;;;5015216;28;20459;-77
2023/06/24 07:49:06;;;;;;;7.40;6.70;;;;;;;;;;5015395;28;20458;-77
2023/06/24 07:51:35;;;;;;;9.60;6.00;;;;;;;;;;5015416;28;20965;-76
2023/06/24 07:54:03;;;;;;;5.93;5.33;;;;;;;;;;5015563;28;20459;-76
2023/06/24 07:56:30;;;;;;;5.90;5.20;;;;;;;;;;5015482;28;20454;-77
2023/06/24 07:58:57;;;;;;;5.57;5.00;;;;;;;;;;5015009;28;20509;-77
2023/06/24 08:01:24;;;;;;;6.53;5.87;;;;;;;;;;5015442;28;20486;-77
2023/06/24 08:03:51;;;;;;;5.60;4.97;;;;;;;;;;5015531;28;20470;-77
2023/06/24 08:06:18;;;;;;;7.30;5.93;;;;;;;;;;5015595;28;20466;-77
2023/06/24 08:08:47;;;;;;;7.40;5.83;;;;;;;;;;5015272;28;20513;-77
2023/06/24 08:11:14;;;;;;;5.53;5.03;;;;;;;;;;5014790;28;20505;-77
2023/06/24 08:13:41;;;;;;;5.57;5.07;;;;;;;;;;5014086;28;20454;-77
2023/06/24 08:16:08;;;;;;;6.83;5.03;;;;;;;;;;5014864;28;20830;-77
2023/06/24 08:18:36;;;;;;;5.57;5.07;;;;;;;;;;5013246;28;20454;-78
2023/06/24 08:21:03;;;;;;;4.77;4.27;;;;;;;;;;5013468;28;20549;-77
2023/06/24 08:23:30;;;;;;;5.20;4.70;;;;;;;;;;5012587;28;20467;-77
2023/06/24 08:25:58;;;;;;;6.40;4.87;;;;;;;;;;5013314;28;20481;-77
2023/06/24 08:28:25;;;;;;;6.47;5.20;;;;;;;;;;5013262;28;20856;-77
2023/06/24 08:30:52;;;;;;;5.30;4.80;;;;;;;;;;5013453;28;20498;-77
2023/06/24 08:33:19;;;;;;;6.63;5.40;;;;;;;;;;5014929;28;20452;-77
2023/06/24 08:35:46;;;;;;;4.70;4.30;;;;;;;;;;5015230;28;20458;-77
2023/06/24 08:38:14;;;;;;;5.33;4.83;;;;;;;;;;5014926;28;20465;-77
2023/06/24 08:40:43;;;;;;;6.60;5.90;;;;;;;;;;5015211;28;20975;-77
2023/06/24 08:43:11;;;;;;;9.37;4.73;;;;;;;;;;5015242;28;20485;-77
2023/06/24 08:45:38;;;;;;;5.40;4.90;;;;;;;;;;5015112;28;20461;-77
2023/06/24 08:48:06;;;;;;;5.37;4.50;;;;;;;;;;5014552;28;20465;-78
2023/06/24 08:50:36;;;;;;;7.93;6.30;;;;;;;;;;5014691;28;20863;-77
2023/06/24 08:53:04;;;;;;;6.83;6.00;;;;;;;;;;5015094;28;20947;-78
2023/06/24 08:55:33;;;;;;;6.50;5.67;;;;;;;;;;5014431;28;20451;-77
2023/06/24 08:58:01;;;;;;;6.67;5.20;;;;;;;;;;5014889;28;20455;-77
2023/06/24 09:00:29;;;;;;;5.90;5.30;;;;;;;;;;5014601;28;20466;-77
2023/06/24 09:02:57;;;;;;;6.90;6.30;;;;;;;;;;5014661;28;20451;-77
2023/06/24 09:05:24;;;;;;;6.00;5.50;;;;;;;;;;5014801;28;20454;-77
2023/06/24 09:07:52;;;;;;;6.33;5.70;;;;;;;;;;5014627;28;20462;-77
2023/06/24 09:10:31;;;;;;;9.87;6.40;;;;;;;;;;5014430;28;20478;-77
2023/06/24 09:12:58;;;;;;;6.30;5.73;;;;;;;;;;5014617;28;20446;-77
2023/06/24 09:15:25;;;;;;;8.10;5.67;;;;;;;;;;5014817;28;20815;-77
2023/06/24 09:17:53;;;;;;;6.17;5.57;;;;;;;;;;5014263;28;20450;-77
2023/06/24 09:20:22;;;;;;;8.40;6.53;;;;;;;;;;5014269;28;20471;-77
2023/06/24 09:22:49;;;;;;;6.90;6.20;;;;;;;;;;5014201;28;20477;-77
2023/06/24 09:25:18;;;;;;;5.83;5.13;;;;;;;;;;5014347;28;20870;-77
2023/06/24 09:27:51;;;;;;;7.37;5.50;;;;;;;;;;5014117;28;20454;-77
2023/06/24 09:30:20;;;;;;;5.73;5.23;;;;;;;;;;5014251;28;20478;-77
2023/06/24 09:32:47;;;;;;;7.80;5.60;;;;;;;;;;5013969;28;20530;-77
2023/06/24 09:35:15;;;;;;;6.23;5.17;;;;;;;;;;5014082;28;20455;-77
2023/06/24 09:37:43;;;;;;;10.70;5.90;;;;;;;;;;5013885;28;20459;-77
2023/06/24 09:40:10;;;;;;;6.33;5.73;;;;;;;;;;5013975;28;20478;-77
2023/06/24 09:42:37;;;;;;;6.53;5.90;;;;;;;;;;5013880;28;20447;-77
2023/06/24 09:45:07;;;;;;;5.67;5.10;;;;;;;;;;5014069;28;20831;-77
2023/06/24 09:47:34;;;;;;;6.60;5.57;;;;;;;;;;5013642;28;20803;-77
2023/06/24 09:50:02;;;;;;;7.27;6.27;;;;;;;;;;5013510;28;20485;-77
2023/06/24 09:52:30;;;;;;;6.70;6.00;;;;;;;;;;5013797;28;20584;-77
2023/06/24 09:54:58;;;;;;;5.47;4.97;;;;;;;;;;5013862;28;20944;-77
2023/06/24 09:57:28;;;;;;;7.20;5.60;;;;;;;;;;5013316;28;20470;-77
2023/06/24 09:59:55;;;;;;;9.90;6.93;;;;;;;;;;5013755;28;20850;-77
2023/06/24 10:02:23;;;;;;;6.93;5.93;;;;;;;;;;5013446;28;20800;-77
2023/06/24 10:04:50;;;;;;;9.10;5.80;;;;;;;;;;5013780;28;20463;-77
2023/06/24 10:07:18;;;;;;;6.57;5.87;;;;;;;;;;5012674;28;20458;-78
2023/06/24 10:09:46;;;;;;;7.83;7.00;;;;;;;;;;5013206;28;20467;-78
2023/06/24 10:12:13;;;;;;;8.03;5.70;;;;;;;;;;5013314;28;20486;-77
2023/06/24 10:14:40;;;;;;;6.97;5.23;;;;;;;;;;5013517;28;20824;-77
2023/06/24 10:17:07;;;;;;;5.90;5.37;;;;;;;;;;5013274;28;20455;-77
2023/06/24 10:19:39;;;;;;;5.40;4.90;;;;;;;;;;5013040;28;20470;-77
2023/06/24 10:22:10;;;;;;;5.43;4.93;;;;;;;;;;5013332;28;20467;-77
2023/06/24 10:24:39;;;;;;;4.63;4.13;;;;;;;;;;5013273;28;20458;-78
2023/06/24 10:27:08;;;;;;;6.93;4.53;;;;;;;;;;5013140;28;20546;-77
2023/06/24 10:29:36;;;;;;;4.40;3.67;;;;;;;;;;5013531;28;20842;-77
2023/06/24 10:32:04;;;;;;;4.90;4.50;;;;;;;;;;5013920;28;20494;-77
2023/06/24 10:34:33;;;;;;;5.20;4.70;;;;;;;;;;5014084;28;20482;-77
2023/06/24 10:37:00;;;;;;;5.23;4.43;;;;;;;;;;5015014;28;20828;-78
2023/06/24 10:39:37;;;;;;;5.83;5.23;;;;;;;;;;5014827;28;20466;-77
2023/06/24 10:42:19;;;;;;;6.10;5.43;;;;;;;;;;5015861;28;20481;-77
2023/06/24 10:44:49;;;;;;;5.00;4.13;;;;;;;;;;5015108;28;20808;-77
2023/06/24 10:47:17;;;;;;;5.17;4.77;;;;;;;;;;5014920;28;20440;-78
2023/06/24 10:49:44;;;;;;;4.93;4.43;;;;;;;;;;5015257;28;20472;-77
2023/06/24 10:52:11;;;;;;;5.40;4.90;;;;;;;;;;5016102;28;20482;-77
2023/06/24 10:54:38;;;;;;;4.77;4.27;;;;;;;;;;5015290;28;20923;-77
2023/06/24 10:57:06;;;;;;;4.10;3.77;;;;;;;;;;5015741;28;20955;-77
2023/06/24 10:59:35;;;;;;;5.00;4.50;;;;;;;;;;5014651;28;20584;-76
2023/06/24 11:02:04;;;;;;;5.73;5.23;;;;;;;;;;5014906;28;20447;-78
2023/06/24 11:04:31;;;;;;;5.00;4.50;;;;;;;;;;5015126;28;20923;-77
2023/06/24 11:06:59;;;;;;;6.30;4.67;;;;;;;;;;5013128;28;20455;-77
2023/06/24 11:09:26;;;;;;;6.20;4.10;;;;;;;;;;5012930;28;20455;-77
2023/06/24 11:11:54;;;;;;;4.47;4.07;;;;;;;;;;5012674;28;21007;-77
2023/06/24 11:14:21;;;;;;;5.37;4.87;;;;;;;;;;5012887;28;20560;-77
2023/06/24 11:16:48;;;;;;;5.70;4.60;;;;;;;;;;5012914;28;20469;-77
2023/06/24 11:19:16;;;;;;;4.17;3.77;;;;;;;;;;5013746;28;20462;-78
2023/06/24 11:21:43;;;;;;;5.30;4.80;;;;;;;;;;5017871;28;20827;-77
2023/06/24 11:24:11;;;;;;;5.73;5.23;;;;;;;;;;5017293;28;20463;-77
2023/06/24 11:26:39;;;;;;;5.30;4.50;;;;;;;;;;5016732;28;20520;-77
2023/06/24 11:29:11;;;;;;;6.63;5.60;;;;;;;;;;5017088;28;20561;-77
2023/06/24 11:31:38;;;;;;;6.53;5.77;;;;;;;;;;5016338;28;20569;-77
2023/06/24 11:34:05;;;;;;;5.50;4.50;;;;;;;;;;5016810;28;20459;-77
2023/06/24 11:36:34;;;;;;;6.53;5.33;;;;;;;;;;5017235;28;20455;-77
2023/06/24 11:39:01;;;;;;;5.40;4.90;;;;;;;;;;5017420;28;20454;-77
2023/06/24 11:41:28;;;;;;;6.07;5.27;;;;;;;;;;5016985;28;20462;-78
2023/06/24 11:43:55;;;;;;;5.43;4.43;;;;;;;;;;5016908;28;20466;-77
2023/06/24 11:46:23;;;;;;;4.57;4.17;;;;;;;;;;5017388;28;20957;-77
2023/06/24 11:48:50;;;;;;;6.57;5.20;;;;;;;;;;5016922;28;21066;-77
2023/06/24 11:51:17;;;;;;;6.37;4.33;;;;;;;;;;5016749;28;20471;-77
2023/06/24 11:53:46;;;;;;;5.50;4.90;;;;;;;;;;5016308;28;20508;-77
2023/06/24 11:56:13;;;;;;;10.23;4.77;;;;;;;;;;5016231;28;20454;-77
2023/06/24 11:58:40;;;;;;;4.77;4.13;;;;;;;;;;5016101;28;20454;-77
2023/06/24 12:01:08;;;;;;;5.27;4.77;;;;;;;;;;5016960;28;20482;-76
2023/06/24 12:03:35;;;;;;;4.47;4.07;;;;;;;;;;5016502;28;20513;-76
2023/06/24 12:06:02;;;;;;;5.40;4.90;;;;;;;;;;5016565;28;20487;-76
2023/06/24 12:08:29;;;;;;;6.60;4.77;;;;;;;;;;5015587;28;20461;-77
2023/06/24 12:10:58;;;;;;;6.27;4.80;;;;;;;;;;5016294;28;20479;-78
2023/06/24 12:13:25;;;;;;;4.50;4.10;;;;;;;;;;5016547;28;20494;-78
2023/06/24 12:15:52;;;;;;;4.90;4.37;;;;;;;;;;5016613;28;20466;-77
2023/06/24 12:18:19;;;;;;;4.27;3.87;;;;;;;;;;5016045;28;20931;-78
2023/06/24 12:20:46;;;;;;;4.87;4.37;;;;;;;;;;5016574;28;20513;-76
2023/06/24 12:23:13;;;;;;;4.77;4.37;;;;;;;;;;5016346;28;20798;-77
2023/06/24 12:25:41;;;;;;;5.10;4.60;;;;;;;;;;5015966;28;20971;-76
2023/06/24 12:28:09;;;;;;;5.63;5.00;;;;;;;;;;5016166;28;20458;-77
2023/06/24 12:30:36;;;;;;;4.80;4.10;;;;;;;;;;5015725;28;20517;-77
2023/06/24 12:33:03;;;;;;;3.97;3.67;;;;;;;;;;5016937;28;20493;-77
2023/06/24 12:35:31;;;;;;;4.50;4.10;;;;;;;;;;5016449;28;20935;-78
2023/06/24 12:37:58;;;;;;;4.87;4.37;;;;;;;;;;5016865;28;20505;-78
2023/06/24 12:40:25;;;;;;;4.33;3.93;;;;;;;;;;5016284;28;20983;-78
2023/06/24 12:42:52;;;;;;;4.30;4.00;;;;;;;;;;5015894;28;20481;-77
2023/06/24 12:45:21;;;;;;;5.43;4.47;;;;;;;;;;5015521;28;20966;-78
2023/06/24 12:47:49;;;;;;;4.40;4.00;;;;;;;;;;5015334;28;20455;-77
2023/06/24 12:50:17;;;;;;;9.43;4.87;;;;;;;;;;5014749;28;21037;-78
2023/06/24 12:52:44;;;;;;;3.70;3.40;;;;;;;;;;5015719;28;20490;-77
2023/06/24 12:55:11;;;;;;;4.57;4.13;;;;;;;;;;5016950;28;20451;-77
2023/06/24 12:57:38;;;;;;;4.83;4.33;;;;;;;;;;5015784;28;20451;-77
2023/06/24 13:00:06;;;;;;;6.03;4.10;;;;;;;;;;5015165;28;20482;-77
2023/06/24 13:02:35;;;;;;;5.67;4.47;;;;;;;;;;5015286;28;20486;-77
2023/06/24 13:05:02;;;;;;;5.03;4.53;;;;;;;;;;5016132;28;20463;-77
2023/06/24 13:07:29;;;;;;;4.17;3.77;;;;;;;;;;5014780;28;20477;-77
2023/06/24 13:09:56;;;;;;;4.30;3.90;;;;;;;;;;5015812;28;20475;-77
2023/06/24 13:12:24;;;;;;;8.63;3.77;;;;;;;;;;5014643;28;20494;-77
2023/06/24 13:14:51;;;;;;;4.47;4.07;;;;;;;;;;5014754;28;20455;-76
2023/06/24 13:17:18;;;;;;;4.63;4.20;;;;;;;;;;5014585;28;20458;-77
2023/06/24 13:19:46;;;;;;;4.77;4.27;;;;;;;;;;5015313;28;20865;-78
2023/06/24 13:22:13;;;;;;;4.50;3.87;;;;;;;;;;5015552;28;20471;-77
2023/06/24 13:24:41;;;;;;;7.40;4.20;;;;;;;;;;5015024;28;20458;-77
2023/06/24 13:27:08;;;;;;;5.70;4.20;;;;;;;;;;5015520;28;20936;-77
2023/06/24 13:29:35;;;;;;;4.97;4.47;;;;;;;;;;5015731;28;20485;-77
2023/06/24 13:32:03;;;;;;;4.70;4.30;;;;;;;;;;5014802;28;20512;-76
2023/06/24 13:34:30;;;;;;;4.90;4.40;;;;;;;;;;5015438;28;20589;-77
2023/06/24 13:36:58;;;;;;;4.20;3.80;;;;;;;;;;5015065;28;20464;-77
2023/06/24 13:39:27;;;;;;;5.00;4.60;;;;;;;;;;5014645;28;20454;-77
2023/06/24 13:41:54;;;;;;;5.10;4.60;;;;;;;;;;5015570;28;20459;-77
2023/06/24 13:44:21;;;;;;;5.00;4.57;;;;;;;;;;5012560;28;20467;-77
2023/06/24 13:46:49;;;;;;;4.57;4.13;;;;;;;;;;5014131;28;20463;-77
2023/06/24 13:49:17;;;;;;;6.57;4.50;;;;;;;;;;5020613;28;20836;-78
2023/06/24 13:51:44;;;;;;;5.10;4.60;;;;;;;;;;5019313;28;20972;-78
2023/06/24 13:54:13;;;;;;;5.17;4.67;;;;;;;;;;5017200;28;20982;-76
2023/06/24 13:56:42;;;;;;;4.70;3.73;;;;;;;;;;5012929;28;20935;-76
2023/06/24 13:59:10;;;;;;;4.67;4.13;;;;;;;;;;5012512;28;20521;-77
2023/06/24 14:01:37;;;;;;;4.20;3.80;;;;;;;;;;5013189;28;20985;-76
2023/06/24 14:04:05;;;;;;;4.10;3.70;;;;;;;;;;5013762;28;20459;-76
2023/06/24 14:06:32;;;;;;;4.10;3.70;;;;;;;;;;5013403;28;20529;-76
2023/06/24 14:08:59;;;;;;;6.13;4.33;;;;;;;;;;5013521;28;20455;-77
2023/06/24 14:11:27;;;;;;;4.20;3.80;;;;;;;;;;5013242;28;20477;-76
2023/06/24 14:13:55;;;;;;;4.33;3.93;;;;;;;;;;5013392;28;20486;-77
2023/06/24 14:16:22;;;;;;;5.30;4.80;;;;;;;;;;5014102;28;20478;-76
2023/06/24 14:18:49;;;;;;;4.10;3.80;;;;;;;;;;5013404;28;20462;-76
2023/06/24 14:21:16;;;;;;;7.37;4.10;;;;;;;;;;5013420;28;20478;-77
2023/06/24 14:23:44;;;;;;;7.00;4.43;;;;;;;;;;5013297;28;20901;-76
2023/06/24 14:26:12;;;;;;;5.07;4.13;;;;;;;;;;5013190;28;20458;-77
2023/06/24 14:28:40;;;;;;;4.63;4.23;;;;;;;;;;5013033;28;20451;-77
2023/06/24 14:31:07;;;;;;;4.50;4.10;;;;;;;;;;5012783;28;20471;-76
2023/06/24 14:33:34;;;;;;;4.67;3.60;;;;;;;;;;5012563;28;20497;-76
2023/06/24 14:36:02;;;;;;;4.93;4.20;;;;;;;;;;5012671;28;20483;-76
2023/06/24 14:38:29;;;;;;;4.57;3.97;;;;;;;;;;5012424;28;20450;-77
2023/06/24 14:40:56;;;;;;;3.70;3.33;;;;;;;;;;5012369;28;20477;-77
2023/06/24 14:43:24;;;;;;;4.17;3.77;;;;;;;;;;5012448;28;20459;-77
2023/06/24 14:45:52;;;;;;;4.03;3.63;;;;;;;;;;5012690;28;21002;-76